Terminal Aerodrome Forecast
Issued by NWS Tuscon, AZ

Home | Current Version | Previous Version | Text Only | Print | Product List | Glossary On
Versions: 1 2 3 4 5 6 7 8 9 10 11 12 13 14 15 16
000
FTUS45 KTWC 120500
TAFDUG
TAF
KDUG 120533Z 1206/1306 27007KT P6SM SCT080 BKN200
     FM121100 VRB04KT P6SM SCT080 SCT200
     FM121700 35006KT P6SM SCT050 SCT100
     FM122100 36009KT P6SM VCTS SCT050CB BKN100
     FM130100 08010KT P6SM SCT050 BKN100=

USA.gov is the U.S. government's official web portal to all federal, state and local government web resources and services.